Terminal Aerodrome Forecast
Issued by NWS Cleveland, OH

Home | Current Version | Previous Version | Text Only | Print | Product List | Glossary Off
Versions: 1 2 3 4 5 6 7 8 9 10 11 12 13 14

000
FTUS41 KCLE 172335
TAFERI
TAF
KERI 172335Z 1800/1824 28008KT 2SM -TSRA OVC035CB
     FM180100 20010KT P6SM -SHRA BKN050
     FM180300 20012KT P6SM VCSH BKN070
     FM180600 21010KT P6SM BKN070
     FM181500 24012G22KT P6SM BKN050
     FM182100 26015G25KT P6SM SCT050=

USA.gov is the U.S. government's official web portal to all federal, state and local government web resources and services.